sensor_id;sensor_type;location;lat;lon;timestamp;pressure;altitude;pressure_sealevel;temperature;humidity
46087;BME280;31824;49.648;8.640;2023-12-20T00:00:20;100438.81;;;4.80;100.00
46087;BME280;31824;49.648;8.640;2023-12-20T00:03:22;100439.56;;;4.79;100.00
46087;BME280;31824;49.648;8.640;2023-12-20T00:06:24;100432.31;;;4.77;100.00
46087;BME280;31824;49.648;8.640;2023-12-20T00:09:27;100426.94;;;4.75;100.00
46087;BME280;31824;49.648;8.640;2023-12-20T00:12:29;100432.31;;;4.77;100.00
46087;BME280;31824;49.648;8.640;2023-12-20T00:15:31;100428.59;;;4.74;100.00
46087;BME280;31824;49.648;8.640;2023-12-20T00:18:32;100415.97;;;4.70;100.00
46087;BME280;31824;49.648;8.640;2023-12-20T00:21:34;100429.53;;;4.75;100.00
46087;BME280;31824;49.648;8.640;2023-12-20T00:24:38;100421.72;;;4.75;100.00
46087;BME280;31824;49.648;8.640;2023-12-20T00:27:41;100420.59;;;4.73;100.00
46087;BME280;31824;49.648;8.640;2023-12-20T00:30:43;100409.28;;;4.72;100.00
46087;BME280;31824;49.648;8.640;2023-12-20T00:33:46;100423.22;;;4.73;100.00
46087;BME280;31824;49.648;8.640;2023-12-20T00:36:49;100423.22;;;4.73;100.00
46087;BME280;31824;49.648;8.640;2023-12-20T00:39:52;100411.16;;;4.73;100.00
46087;BME280;31824;49.648;8.640;2023-12-20T00:42:55;100405.00;;;4.73;100.00
46087;BME280;31824;49.648;8.640;2023-12-20T00:45:57;100406.50;;;4.71;100.00
46087;BME280;31824;49.648;8.640;2023-12-20T00:49:02;100406.13;;;4.75;100.00
46087;BME280;31824;49.648;8.640;2023-12-20T00:52:05;100404.81;;;4.71;100.00
46087;BME280;31824;49.648;8.640;2023-12-20T00:55:09;100399.59;;;4.71;100.00
46087;BME280;31824;49.648;8.640;2023-12-20T00:58:11;100399.03;;;4.74;100.00
46087;BME280;31824;49.648;8.640;2023-12-20T01:01:12;100397.94;;;4.72;100.00
46087;BME280;31824;49.648;8.640;2023-12-20T01:04:15;100400.16;;;4.69;100.00
46087;BME280;31824;49.648;8.640;2023-12-20T01:07:17;100388.47;;;4.72;100.00
46087;BME280;31824;49.648;8.640;2023-12-20T01:10:21;100387.91;;;4.75;100.00
46087;BME280;31824;49.648;8.640;2023-12-20T01:13:24;100388.63;;;4.74;100.00
46087;BME280;31824;49.648;8.640;2023-12-20T01:16:26;100389.56;;;4.74;100.00
46087;BME280;31824;49.648;8.640;2023-12-20T01:19:29;100385.13;;;4.73;100.00
46087;BME280;31824;49.648;8.640;2023-12-20T01:22:31;100381.00;;;4.76;100.00
46087;BME280;31824;49.648;8.640;2023-12-20T01:25:35;100381.94;;;4.76;100.00
46087;BME280;31824;49.648;8.640;2023-12-20T01:28:37;100380.63;;;4.80;100.00
46087;BME280;31824;49.648;8.640;2023-12-20T01:31:40;100373.59;;;4.79;100.00
46087;BME280;31824;49.648;8.640;2023-12-20T01:34:42;100373.94;;;4.82;100.00
46087;BME280;31824;49.648;8.640;2023-12-20T01:37:44;100378.41;;;4.83;100.00
46087;BME280;31824;49.648;8.640;2023-12-20T01:40:48;100391.41;;;4.83;100.00
46087;BME280;31824;49.648;8.640;2023-12-20T01:43:50;100400.13;;;4.83;100.00
46087;BME280;31824;49.648;8.640;2023-12-20T01:46:52;100395.66;;;4.82;100.00
46087;BME280;31824;49.648;8.640;2023-12-20T01:49:55;100391.41;;;4.83;100.00
46087;BME280;31824;49.648;8.640;2023-12-20T01:52:59;100389.19;;;4.79;100.00
46087;BME280;31824;49.648;8.640;2023-12-20T01:56:04;100390.28;;;4.81;100.00
46087;BME280;31824;49.648;8.640;2023-12-20T01:59:07;100387.69;;;4.81;100.00
46087;BME280;31824;49.648;8.640;2023-12-20T02:02:11;100380.06;;;4.82;100.00
46087;BME280;31824;49.648;8.640;2023-12-20T02:05:14;100383.59;;;4.83;100.00
46087;BME280;31824;49.648;8.640;2023-12-20T02:08:18;100383.41;;;4.81;100.00
46087;BME280;31824;49.648;8.640;2023-12-20T02:11:21;100386.22;;;4.83;100.00
46087;BME280;31824;49.648;8.640;2023-12-20T02:14:23;100393.63;;;4.80;100.00
46087;BME280;31824;49.648;8.640;2023-12-20T02:17:25;100387.13;;;4.83;100.00
46087;BME280;31824;49.648;8.640;2023-12-20T02:20:27;100393.25;;;4.84;100.00
46087;BME280;31824;49.648;8.640;2023-12-20T02:23:30;100381.34;;;4.86;100.00
46087;BME280;31824;49.648;8.640;2023-12-20T02:26:33;100378.56;;;4.84;100.00
46087;BME280;31824;49.648;8.640;2023-12-20T02:29:35;100379.50;;;4.85;100.00
46087;BME280;31824;49.648;8.640;2023-12-20T02:32:37;100376.72;;;4.83;100.00
46087;BME280;31824;49.648;8.640;2023-12-20T02:35:40;100380.41;;;4.85;100.00
46087;BME280;31824;49.648;8.640;2023-12-20T02:38:43;100383.00;;;4.85;100.00
46087;BME280;31824;49.648;8.640;2023-12-20T02:41:46;100389.16;;;4.86;100.00
46087;BME280;31824;49.648;8.640;2023-12-20T02:44:48;100378.56;;;4.84;100.00
46087;BME280;31824;49.648;8.640;2023-12-20T02:47:50;100369.09;;;4.85;100.00
46087;BME280;31824;49.648;8.640;2023-12-20T02:50:52;100379.66;;;4.86;100.00
46087;BME280;31824;49.648;8.640;2023-12-20T02:53:55;100382.09;;;4.85;100.00
46087;BME280;31824;49.648;8.640;2023-12-20T02:56:57;100369.09;;;4.85;100.00
46087;BME280;31824;49.648;8.640;2023-12-20T02:59:58;100374.47;;;4.86;100.00
46087;BME280;31824;49.648;8.640;2023-12-20T03:03:00;100384.88;;;4.86;100.00
46087;BME280;31824;49.648;8.640;2023-12-20T03:06:03;100386.00;;;4.88;100.00
46087;BME280;31824;49.648;8.640;2023-12-20T03:09:06;100369.59;;;4.89;100.00
46087;BME280;31824;49.648;8.640;2023-12-20T03:12:08;100374.63;;;4.88;100.00
46087;BME280;31824;49.648;8.640;2023-12-20T03:15:10;100380.78;;;4.88;100.00
46087;BME280;31824;49.648;8.640;2023-12-20T03:18:12;100389.34;;;4.87;100.00
46087;BME280;31824;49.648;8.640;2023-12-20T03:21:15;100383.22;;;4.87;100.00
46087;BME280;31824;49.648;8.640;2023-12-20T03:24:18;100393.63;;;4.87;100.00
46087;BME280;31824;49.648;8.640;2023-12-20T03:27:20;100393.81;;;4.88;100.00
46087;BME280;31824;49.648;8.640;2023-12-20T03:30:22;100386.75;;;4.87;100.00
46087;BME280;31824;49.648;8.640;2023-12-20T03:33:24;100396.41;;;4.88;100.00
46087;BME280;31824;49.648;8.640;2023-12-20T03:36:25;100398.84;;;4.87;100.00
46087;BME280;31824;49.648;8.640;2023-12-20T03:39:29;100391.38;;;4.90;100.00
46087;BME280;31824;49.648;8.640;2023-12-20T03:42:31;100391.78;;;4.86;100.00
46087;BME280;31824;49.648;8.640;2023-12-20T03:45:33;100379.84;;;4.88;100.00
46087;BME280;31824;49.648;8.640;2023-12-20T03:48:35;100380.41;;;4.85;100.00
46087;BME280;31824;49.648;8.640;2023-12-20T03:51:37;100391.94;;;4.87;100.00
46087;BME280;31824;49.648;8.640;2023-12-20T03:54:40;100396.03;;;4.85;100.00
46087;BME280;31824;49.648;8.640;2023-12-20T03:57:44;100382.28;;;4.86;100.00
46087;BME280;31824;49.648;8.640;2023-12-20T04:00:47;100390.09;;;4.86;100.00
46087;BME280;31824;49.648;8.640;2023-12-20T04:03:49;100396.22;;;4.87;100.00
46087;BME280;31824;49.648;8.640;2023-12-20T04:06:51;100398.84;;;4.87;100.00
46087;BME280;31824;49.648;8.640;2023-12-20T04:09:54;100387.66;;;4.88;100.00
46087;BME280;31824;49.648;8.640;2023-12-20T04:12:56;100398.84;;;4.87;100.00
46087;BME280;31824;49.648;8.640;2023-12-20T04:15:58;100399.75;;;4.87;100.00
46087;BME280;31824;49.648;8.640;2023-12-20T04:19:00;100409.44;;;4.88;100.00
46087;BME280;31824;49.648;8.640;2023-12-20T04:22:03;100408.13;;;4.85;100.00
46087;BME280;31824;49.648;8.640;2023-12-20T04:25:07;100404.97;;;4.87;100.00
46087;BME280;31824;49.648;8.640;2023-12-20T04:28:09;100409.25;;;4.87;100.00
46087;BME280;31824;49.648;8.640;2023-12-20T04:31:11;100410.16;;;4.87;100.00
46087;BME280;31824;49.648;8.640;2023-12-20T04:34:13;100406.66;;;4.87;100.00
46087;BME280;31824;49.648;8.640;2023-12-20T04:37:15;100411.84;;;4.87;100.00
46087;BME280;31824;49.648;8.640;2023-12-20T04:40:18;100421.31;;;4.86;100.00
46087;BME280;31824;49.648;8.640;2023-12-20T04:43:20;100432.06;;;4.89;100.00
46087;BME280;31824;49.648;8.640;2023-12-20T04:46:22;100427.47;;;4.87;100.00
46087;BME280;31824;49.648;8.640;2023-12-20T04:49:25;100436.03;;;4.86;100.00
46087;BME280;31824;49.648;8.640;2023-12-20T04:52:28;100439.53;;;4.86;100.00
46087;BME280;31824;49.648;8.640;2023-12-20T04:55:31;100430.63;;;4.84;100.00
46087;BME280;31824;49.648;8.640;2023-12-20T04:58:33;100440.09;;;4.84;100.00
46087;BME280;31824;49.648;8.640;2023-12-20T05:01:35;100429.69;;;4.84;100.00
46087;BME280;31824;49.648;8.640;2023-12-20T05:04:38;100447.91;;;4.84;100.00
46087;BME280;31824;49.648;8.640;2023-12-20T05:07:40;100447.72;;;4.82;100.00
46087;BME280;31824;49.648;8.640;2023-12-20T05:10:44;100459.09;;;4.83;100.00
46087;BME280;31824;49.648;8.640;2023-12-20T05:13:46;100457.06;;;4.80;100.00
46087;BME280;31824;49.648;8.640;2023-12-20T05:16:51;100454.63;;;4.82;100.00
46087;BME280;31824;49.648;8.640;2023-12-20T05:19:53;100459.09;;;4.83;100.00
46087;BME280;31824;49.648;8.640;2023-12-20T05:22:55;100468.38;;;4.81;100.00
46087;BME280;31824;49.648;8.640;2023-12-20T05:25:59;100468.53;;;4.89;100.00
46087;BME280;31824;49.648;8.640;2023-12-20T05:29:00;100473.16;;;4.92;100.00
46087;BME280;31824;49.648;8.640;2023-12-20T05:32:03;100478.03;;;4.89;100.00
46087;BME280;31824;49.648;8.640;2023-12-20T05:35:06;100470.22;;;4.89;100.00
46087;BME280;31824;49.648;8.640;2023-12-20T05:38:09;100477.28;;;4.90;100.00
46087;BME280;31824;49.648;8.640;2023-12-20T05:41:16;100490.84;;;4.95;100.00
46087;BME280;31824;49.648;8.640;2023-12-20T05:44:18;100496.03;;;4.95;100.00
46087;BME280;31824;49.648;8.640;2023-12-20T05:47:20;100505.72;;;4.96;100.00
46087;BME280;31824;49.648;8.640;2023-12-20T05:50:23;100500.31;;;5.01;100.00
46087;BME280;31824;49.648;8.640;2023-12-20T05:53:25;100512.59;;;5.02;100.00
46087;BME280;31824;49.648;8.640;2023-12-20T05:56:28;100523.75;;;5.01;100.00
46087;BME280;31824;49.648;8.640;2023-12-20T05:59:30;100519.84;;;5.05;100.00
46087;BME280;31824;49.648;8.640;2023-12-20T06:02:32;100525.59;;;5.02;100.00
46087;BME280;31824;49.648;8.640;2023-12-20T06:05:35;100520.97;;;5.00;100.00
46087;BME280;31824;49.648;8.640;2023-12-20T06:08:36;100531.00;;;4.89;100.00
46087;BME280;31824;49.648;8.640;2023-12-20T06:11:40;100538.66;;;4.66;100.00
46087;BME280;31824;49.648;8.640;2023-12-20T06:14:42;100541.81;;;4.56;100.00
46087;BME280;31824;49.648;8.640;2023-12-20T06:17:44;100533.09;;;4.49;100.00
46087;BME280;31824;49.648;8.640;2023-12-20T06:20:46;100530.28;;;4.40;100.00
46087;BME280;31824;49.648;8.640;2023-12-20T06:23:48;100527.91;;;4.49;100.00
46087;BME280;31824;49.648;8.640;2023-12-20T06:26:51;100538.31;;;4.49;100.00
46087;BME280;31824;49.648;8.640;2023-12-20T06:29:55;100531.22;;;4.62;100.00
46087;BME280;31824;49.648;8.640;2023-12-20T06:32:57;100524.94;;;4.53;100.00
46087;BME280;31824;49.648;8.640;2023-12-20T06:35:59;100528.78;;;4.35;100.00
46087;BME280;31824;49.648;8.640;2023-12-20T06:39:01;100535.69;;;4.42;100.00
46087;BME280;31824;49.648;8.640;2023-12-20T06:42:05;100542.00;;;4.51;100.00
46087;BME280;31824;49.648;8.640;2023-12-20T06:45:07;100545.72;;;4.46;100.00
46087;BME280;31824;49.648;8.640;2023-12-20T06:48:09;100541.25;;;4.45;100.00
46087;BME280;31824;49.648;8.640;2023-12-20T06:51:14;100539.56;;;4.31;100.00
46087;BME280;31824;49.648;8.640;2023-12-20T06:54:17;100533.28;;;4.29;100.00
46087;BME280;31824;49.648;8.640;2023-12-20T06:57:20;100542.13;;;4.09;100.00
46087;BME280;31824;49.648;8.640;2023-12-20T07:00:22;100541.75;;;4.06;100.00
46087;BME280;31824;49.648;8.640;2023-12-20T07:03:24;100539.72;;;4.11;100.00
46087;BME280;31824;49.648;8.640;2023-12-20T07:06:26;100543.63;;;4.07;100.00
46087;BME280;31824;49.648;8.640;2023-12-20T07:09:28;100557.78;;;4.16;100.00
46087;BME280;31824;49.648;8.640;2023-12-20T07:12:31;100562.25;;;4.25;100.00
46087;BME280;31824;49.648;8.640;2023-12-20T07:15:33;100555.00;;;4.15;100.00
46087;BME280;31824;49.648;8.640;2023-12-20T07:18:35;100549.03;;;4.16;100.00
46087;BME280;31824;49.648;8.640;2023-12-20T07:21:37;100549.94;;;4.02;100.00
46087;BME280;31824;49.648;8.640;2023-12-20T07:24:39;100554.56;;;4.04;100.00
46087;BME280;31824;49.648;8.640;2023-12-20T07:27:42;100548.59;;;3.91;100.00
46087;BME280;31824;49.648;8.640;2023-12-20T07:30:46;100557.66;;;3.80;100.00
46087;BME280;31824;49.648;8.640;2023-12-20T07:33:48;100559.09;;;3.71;100.00
46087;BME280;31824;49.648;8.640;2023-12-20T07:36:50;100565.63;;;3.75;100.00
46087;BME280;31824;49.648;8.640;2023-12-20T07:39:52;100578.63;;;3.82;100.00
46087;BME280;31824;49.648;8.640;2023-12-20T07:42:56;100576.09;;;3.89;100.00
46087;BME280;31824;49.648;8.640;2023-12-20T07:46:04;100577.38;;;3.93;100.00
46087;BME280;31824;49.648;8.640;2023-12-20T07:49:06;100577.19;;;3.98;100.00
46087;BME280;31824;49.648;8.640;2023-12-20T07:52:10;100573.53;;;4.11;100.00
46087;BME280;31824;49.648;8.640;2023-12-20T07:55:13;100582.28;;;4.18;100.00
46087;BME280;31824;49.648;8.640;2023-12-20T07:58:16;100585.28;;;4.29;100.00
46087;BME280;31824;49.648;8.640;2023-12-20T08:01:18;100591.03;;;4.33;100.00
46087;BME280;31824;49.648;8.640;2023-12-20T08:04:20;100592.00;;;4.41;100.00
46087;BME280;31824;49.648;8.640;2023-12-20T08:07:22;100592.34;;;4.44;100.00
46087;BME280;31824;49.648;8.640;2023-12-20T08:10:24;100599.25;;;4.51;100.00
46087;BME280;31824;49.648;8.640;2023-12-20T08:13:28;100597.19;;;4.55;100.00
46087;BME280;31824;49.648;8.640;2023-12-20T08:16:30;100597.75;;;4.46;100.00
46087;BME280;31824;49.648;8.640;2023-12-20T08:19:32;100592.91;;;4.42;100.00
46087;BME280;31824;49.648;8.640;2023-12-20T08:22:34;100591.41;;;4.36;100.00
46087;BME280;31824;49.648;8.640;2023-12-20T08:25:36;100593.63;;;4.33;100.00
46087;BME280;31824;49.648;8.640;2023-12-20T08:28:39;100600.16;;;4.30;100.00
46087;BME280;31824;49.648;8.640;2023-12-20T08:31:41;100601.06;;;4.30;100.00
46087;BME280;31824;49.648;8.640;2023-12-20T08:34:43;100610.94;;;4.33;100.00
46087;BME280;31824;49.648;8.640;2023-12-20T08:37:45;100611.69;;;4.46;100.00
46087;BME280;31824;49.648;8.640;2023-12-20T08:40:47;100615.44;;;4.70;100.00
46087;BME280;31824;49.648;8.640;2023-12-20T08:43:51;100613.78;;;4.78;100.00
46087;BME280;31824;49.648;8.640;2023-12-20T08:46:53;100610.81;;;4.82;100.00
46087;BME280;31824;49.648;8.640;2023-12-20T08:49:58;100614.16;;;4.73;100.00
46087;BME280;31824;49.648;8.640;2023-12-20T08:53:03;100606.53;;;4.75;100.00
46087;BME280;31824;49.648;8.640;2023-12-20T08:56:06;100613.19;;;4.73;100.00
46087;BME280;31824;49.648;8.640;2023-12-20T08:59:09;100620.25;;;4.81;100.00
46087;BME280;31824;49.648;8.640;2023-12-20T09:02:11;100626.22;;;4.87;100.00
46087;BME280;31824;49.648;8.640;2023-12-20T09:05:14;100623.25;;;4.99;100.00
46087;BME280;31824;49.648;8.640;2023-12-20T09:08:16;100624.34;;;5.08;100.00
46087;BME280;31824;49.648;8.640;2023-12-20T09:11:18;100629.38;;;5.14;100.00
46087;BME280;31824;49.648;8.640;2023-12-20T09:14:21;100624.75;;;5.18;100.00
46087;BME280;31824;49.648;8.640;2023-12-20T09:17:23;100628.25;;;5.19;100.00
46087;BME280;31824;49.648;8.640;2023-12-20T09:20:26;100622.69;;;5.16;100.00
46087;BME280;31824;49.648;8.640;2023-12-20T09:23:29;100628.25;;;5.19;100.00
46087;BME280;31824;49.648;8.640;2023-12-20T09:26:30;100621.56;;;5.21;100.00
46087;BME280;31824;49.648;8.640;2023-12-20T09:29:34;100628.78;;;5.23;100.00
46087;BME280;31824;49.648;8.640;2023-12-20T09:32:35;100634.41;;;5.27;100.00
46087;BME280;31824;49.648;8.640;2023-12-20T09:35:37;100629.91;;;5.33;100.00
46087;BME280;31824;49.648;8.640;2023-12-20T09:38:40;100633.09;;;5.37;100.00
46087;BME280;31824;49.648;8.640;2023-12-20T09:41:43;100635.28;;;5.34;100.00
46087;BME280;31824;49.648;8.640;2023-12-20T09:44:50;100634.19;;;5.39;100.00
46087;BME280;31824;49.648;8.640;2023-12-20T09:47:53;100633.41;;;5.48;100.00
46087;BME280;31824;49.648;8.640;2023-12-20T09:50:56;100632.47;;;5.54;100.00
46087;BME280;31824;49.648;8.640;2023-12-20T09:53:58;100637.13;;;5.57;100.00
46087;BME280;31824;49.648;8.640;2023-12-20T09:57:02;100625.78;;;5.56;100.00
46087;BME280;31824;49.648;8.640;2023-12-20T10:00:08;100643.47;;;5.59;100.00
46087;BME280;31824;49.648;8.640;2023-12-20T10:03:13;100635.25;;;5.63;100.00
46087;BME280;31824;49.648;8.640;2023-12-20T10:06:19;100640.66;;;5.65;100.00
46087;BME280;31824;49.648;8.640;2023-12-20T10:09:21;100640.63;;;5.72;100.00
46087;BME280;31824;49.648;8.640;2023-12-20T10:12:23;100641.94;;;5.75;100.00
46087;BME280;31824;49.648;8.640;2023-12-20T10:15:27;100628.13;;;5.77;100.00
46087;BME280;31824;49.648;8.640;2023-12-20T10:18:29;100620.84;;;5.81;100.00
46087;BME280;31824;49.648;8.640;2023-12-20T10:21:41;100616.72;;;5.90;100.00
46087;BME280;31824;49.648;8.640;2023-12-20T10:24:43;100619.50;;;5.92;100.00
46087;BME280;31824;49.648;8.640;2023-12-20T10:27:44;100622.84;;;5.91;100.00
46087;BME280;31824;49.648;8.640;2023-12-20T10:30:48;100614.88;;;5.89;100.00
46087;BME280;31824;49.648;8.640;2023-12-20T10:33:50;100612.59;;;5.92;100.00
46087;BME280;31824;49.648;8.640;2023-12-20T10:36:52;100615.94;;;5.91;100.00
46087;BME280;31824;49.648;8.640;2023-12-20T10:39:55;100611.91;;;5.86;100.00
46087;BME280;31824;49.648;8.640;2023-12-20T10:43:00;100606.69;;;5.86;100.00
46087;BME280;31824;49.648;8.640;2023-12-20T10:46:06;100597.34;;;5.96;100.00
46087;BME280;31824;49.648;8.640;2023-12-20T10:49:08;100601.78;;;5.97;100.00
46087;BME280;31824;49.648;8.640;2023-12-20T10:52:11;100601.81;;;6.04;100.00
46087;BME280;31824;49.648;8.640;2023-12-20T10:55:14;100609.06;;;5.99;100.00
46087;BME280;31824;49.648;8.640;2023-12-20T10:58:16;100600.13;;;6.04;100.00
46087;BME280;31824;49.648;8.640;2023-12-20T11:01:23;100598.81;;;6.01;100.00
46087;BME280;31824;49.648;8.640;2023-12-20T11:04:30;100592.81;;;6.09;100.00
46087;BME280;31824;49.648;8.640;2023-12-20T11:07:40;100591.66;;;6.14;100.00
46087;BME280;31824;49.648;8.640;2023-12-20T11:10:51;100585.88;;;6.17;100.00
46087;BME280;31824;49.648;8.640;2023-12-20T11:13:59;100584.56;;;6.20;100.00
46087;BME280;31824;49.648;8.640;2023-12-20T11:17:09;100582.88;;;6.21;100.00
46087;BME280;31824;49.648;8.640;2023-12-20T11:20:11;100565.75;;;6.23;100.00
46087;BME280;31824;49.648;8.640;2023-12-20T11:23:14;100567.38;;;6.30;100.00
46087;BME280;31824;49.648;8.640;2023-12-20T11:26:22;100572.78;;;6.31;100.00
46087;BME280;31824;49.648;8.640;2023-12-20T11:29:31;100572.03;;;6.25;100.00
46087;BME280;31824;49.648;8.640;2023-12-20T11:32:35;100571.13;;;6.24;100.00
46087;BME280;31824;49.648;8.640;2023-12-20T11:35:39;100571.06;;;6.32;100.00
46087;BME280;31824;49.648;8.640;2023-12-20T11:38:54;100559.91;;;6.25;100.00
46087;BME280;31824;49.648;8.640;2023-12-20T11:41:57;100563.41;;;6.33;100.00
46087;BME280;31824;49.648;8.640;2023-12-20T11:44:59;100561.38;;;6.31;100.00
46087;BME280;31824;49.648;8.640;2023-12-20T11:48:03;100566.25;;;6.28;100.00
46087;BME280;31824;49.648;8.640;2023-12-20T11:51:09;100571.47;;;6.28;100.00
46087;BME280;31824;49.648;8.640;2023-12-20T11:54:11;100571.06;;;6.32;100.00
46087;BME280;31824;49.648;8.640;2023-12-20T11:57:13;100567.53;;;6.31;100.00
46087;BME280;31824;49.648;8.640;2023-12-20T12:00:16;100559.56;;;6.22;100.00
46087;BME280;31824;49.648;8.640;2023-12-20T12:03:19;100563.53;;;6.19;100.00
46087;BME280;31824;49.648;8.640;2023-12-20T12:06:21;100566.31;;;6.20;100.00
46087;BME280;31824;49.648;8.640;2023-12-20T12:09:23;100556.63;;;6.19;100.00
46087;BME280;31824;49.648;8.640;2023-12-20T12:12:25;100562.59;;;6.18;100.00
46087;BME280;31824;49.648;8.640;2023-12-20T12:15:29;100565.00;;;6.17;100.00
46087;BME280;31824;49.648;8.640;2023-12-20T12:18:32;100559.41;;;6.21;100.00
46087;BME280;31824;49.648;8.640;2023-12-20T12:21:34;100559.63;;;6.15;100.00
46087;BME280;31824;49.648;8.640;2023-12-20T12:24:42;100555.09;;;6.21;100.00
46087;BME280;31824;49.648;8.640;2023-12-20T12:27:44;100559.47;;;6.14;100.00
46087;BME280;31824;49.648;8.640;2023-12-20T12:30:56;100558.09;;;6.17;100.00
46087;BME280;31824;49.648;8.640;2023-12-20T12:33:59;100566.13;;;6.19;100.00
46087;BME280;31824;49.648;8.640;2023-12-20T12:37:03;100552.16;;;6.18;100.00
46087;BME280;31824;49.648;8.640;2023-12-20T12:40:06;100545.66;;;6.15;100.00
46087;BME280;31824;49.648;8.640;2023-12-20T12:43:08;100540.78;;;6.18;100.00
46087;BME280;31824;49.648;8.640;2023-12-20T12:46:10;100544.22;;;6.10;100.00
46087;BME280;31824;49.648;8.640;2023-12-20T12:49:14;100551.06;;;6.09;100.00
46087;BME280;31824;49.648;8.640;2023-12-20T12:52:15;100545.88;;;6.09;100.00
46087;BME280;31824;49.648;8.640;2023-12-20T12:55:20;100556.44;;;6.18;100.00
46087;BME280;31824;49.648;8.640;2023-12-20T12:58:22;100552.88;;;6.17;100.00
46087;BME280;31824;49.648;8.640;2023-12-20T13:01:25;100536.16;;;6.15;100.00
46087;BME280;31824;49.648;8.640;2023-12-20T13:04:28;100518.06;;;6.17;100.00
46087;BME280;31824;49.648;8.640;2023-12-20T13:07:30;100522.72;;;6.19;100.00
46087;BME280;31824;49.648;8.640;2023-12-20T13:10:32;100515.44;;;6.17;100.00
46087;BME280;31824;49.648;8.640;2023-12-20T13:13:34;100512.84;;;6.17;100.00
46087;BME280;31824;49.648;8.640;2023-12-20T13:16:36;100497.19;;;6.17;100.00
46087;BME280;31824;49.648;8.640;2023-12-20T13:19:43;100481.53;;;6.17;100.00
46087;BME280;31824;49.648;8.640;2023-12-20T13:22:45;100469.97;;;6.22;100.00
46087;BME280;31824;49.648;8.640;2023-12-20T13:25:48;100466.19;;;6.27;100.00
46087;BME280;31824;49.648;8.640;2023-12-20T13:28:50;100456.28;;;6.32;100.00
46087;BME280;31824;49.648;8.640;2023-12-20T13:31:52;100460.50;;;6.38;100.00
46087;BME280;31824;49.648;8.640;2023-12-20T13:34:55;100455.78;;;6.43;100.00
46087;BME280;31824;49.648;8.640;2023-12-20T13:37:57;100453.00;;;6.41;100.00
46087;BME280;31824;49.648;8.640;2023-12-20T13:40:59;100447.38;;;6.46;100.00
46087;BME280;31824;49.648;8.640;2023-12-20T13:44:01;100450.00;;;6.46;100.00
46087;BME280;31824;49.648;8.640;2023-12-20T13:47:05;100436.94;;;6.46;100.00
46087;BME280;31824;49.648;8.640;2023-12-20T13:50:09;100439.13;;;6.50;100.00
46087;BME280;31824;49.648;8.640;2023-12-20T13:53:11;100428.41;;;6.63;100.00
46087;BME280;31824;49.648;8.640;2023-12-20T13:56:13;100429.44;;;6.72;100.00
46087;BME280;31824;49.648;8.640;2023-12-20T13:59:15;100432.78;;;6.71;100.00
46087;BME280;31824;49.648;8.640;2023-12-20T14:02:17;100428.66;;;6.73;100.00
46087;BME280;31824;49.648;8.640;2023-12-20T14:05:20;100425.47;;;6.75;100.00
46087;BME280;31824;49.648;8.640;2023-12-20T14:08:29;100431.63;;;6.76;100.00
46087;BME280;31824;49.648;8.640;2023-12-20T14:11:31;100432.44;;;6.84;100.00
46087;BME280;31824;49.648;8.640;2023-12-20T14:14:33;100430.88;;;6.93;100.00
46087;BME280;31824;49.648;8.640;2023-12-20T14:17:35;100438.59;;;7.00;100.00
46087;BME280;31824;49.648;8.640;2023-12-20T14:20:38;100441.91;;;6.90;100.00
46087;BME280;31824;49.648;8.640;2023-12-20T14:23:41;100444.00;;;6.86;100.00
46087;BME280;31824;49.648;8.640;2023-12-20T14:26:47;100437.50;;;6.82;100.00
46087;BME280;31824;49.648;8.640;2023-12-20T14:29:49;100434.03;;;6.74;100.00
46087;BME280;31824;49.648;8.640;2023-12-20T14:32:51;100436.66;;;6.74;100.00
46087;BME280;31824;49.648;8.640;2023-12-20T14:35:54;100435.25;;;6.69;100.00
46087;BME280;31824;49.648;8.640;2023-12-20T14:38:56;100436.16;;;6.70;100.00
46087;BME280;31824;49.648;8.640;2023-12-20T14:41:58;100440.88;;;6.65;100.00
46087;BME280;31824;49.648;8.640;2023-12-20T14:45:00;100439.75;;;6.63;100.00
46087;BME280;31824;49.648;8.640;2023-12-20T14:48:03;100439.75;;;6.63;100.00
46087;BME280;31824;49.648;8.640;2023-12-20T14:51:06;100426.22;;;6.58;100.00
46087;BME280;31824;49.648;8.640;2023-12-20T14:54:08;100435.13;;;6.61;100.00
46087;BME280;31824;49.648;8.640;2023-12-20T14:57:12;100436.06;;;6.61;100.00
46087;BME280;31824;49.648;8.640;2023-12-20T15:00:14;100434.53;;;6.63;100.00
46087;BME280;31824;49.648;8.640;2023-12-20T15:03:18;100429.91;;;6.61;100.00
46087;BME280;31824;49.648;8.640;2023-12-20T15:06:22;100431.44;;;6.58;100.00
46087;BME280;31824;49.648;8.640;2023-12-20T15:09:24;100438.31;;;6.58;100.00
46087;BME280;31824;49.648;8.640;2023-12-20T15:12:26;100436.97;;;6.62;100.00
46087;BME280;31824;49.648;8.640;2023-12-20T15:15:27;100433.88;;;6.57;100.00
46087;BME280;31824;49.648;8.640;2023-12-20T15:18:31;100428.97;;;6.60;100.00
46087;BME280;31824;49.648;8.640;2023-12-20T15:21:35;100421.03;;;6.51;100.00
46087;BME280;31824;49.648;8.640;2023-12-20T15:24:45;100410.09;;;6.47;100.00
46087;BME280;31824;49.648;8.640;2023-12-20T15:27:48;100420.63;;;6.39;100.00
46087;BME280;31824;49.648;8.640;2023-12-20T15:30:54;100425.84;;;6.39;100.00
46087;BME280;31824;49.648;8.640;2023-12-20T15:33:56;100425.00;;;6.48;100.00
46087;BME280;31824;49.648;8.640;2023-12-20T15:36:59;100412.53;;;6.45;100.00
46087;BME280;31824;49.648;8.640;2023-12-20T15:40:02;100421.69;;;6.41;100.00
46087;BME280;31824;49.648;8.640;2023-12-20T15:43:07;100420.38;;;6.45;100.00
46087;BME280;31824;49.648;8.640;2023-12-20T15:46:09;100410.19;;;6.39;100.00
46087;BME280;31824;49.648;8.640;2023-12-20T15:49:11;100413.88;;;6.41;100.00
46087;BME280;31824;49.648;8.640;2023-12-20T15:52:15;100412.94;;;6.41;100.00
46087;BME280;31824;49.648;8.640;2023-12-20T15:55:17;100419.09;;;6.41;100.00